createdAt,value
2023-01-19T00:06:54.894Z,46.65
2023-01-19T00:08:56.991Z,43.35
2023-01-19T00:13:01.097Z,44.92
2023-01-19T00:15:03.675Z,47.13
2023-01-19T00:17:05.660Z,44.28
2023-01-19T00:19:07.898Z,62.92
2023-01-19T00:21:09.835Z,56.33
2023-01-19T00:23:11.736Z,51.55
2023-01-19T00:25:13.674Z,56.88
2023-01-19T00:27:15.574Z,47.42
2023-01-19T00:29:17.468Z,50.22
2023-01-19T00:31:21.800Z,48.85
2023-01-19T00:33:23.856Z,52.08
2023-01-19T00:35:26.032Z,46.47
2023-01-19T00:39:29.741Z,41.22
2023-01-19T00:41:50.082Z,51.22
2023-01-19T00:43:51.979Z,54.58
2023-01-19T00:45:53.922Z,48.40
2023-01-19T00:47:57.312Z,36.85
2023-01-19T00:49:59.332Z,46.63
2023-01-19T00:52:01.254Z,47.25
2023-01-19T00:54:05.019Z,42.83
2023-01-19T00:56:07.349Z,46.60
2023-01-19T00:58:09.681Z,42.88
2023-01-19T01:00:16.845Z,107.80
2023-01-19T01:02:19.017Z,53.60
2023-01-19T01:04:20.948Z,47.75
2023-01-19T01:06:23.053Z,51.25
2023-01-19T01:10:29.571Z,48.92
2023-01-19T01:12:31.417Z,57.75
2023-01-19T01:14:33.390Z,39.33
2023-01-19T01:16:35.521Z,47.85
2023-01-19T01:20:39.286Z,42.83
2023-01-19T01:22:45.236Z,57.50
2023-01-19T01:24:47.235Z,51.33
2023-01-19T01:26:49.133Z,40.95
2023-01-19T01:28:51.026Z,47.00
2023-01-19T01:30:57.165Z,47.25
2023-01-19T01:32:59.341Z,44.22
2023-01-19T01:35:01.433Z,45.03
2023-01-19T01:37:03.306Z,40.55
2023-01-19T01:39:05.958Z,49.05
2023-01-19T01:41:08.418Z,37.70
2023-01-19T01:43:14.114Z,39.35
2023-01-19T01:45:37.508Z,41.95
2023-01-19T01:47:45.810Z,48.00
2023-01-19T01:49:48.895Z,52.67
2023-01-19T01:51:54.095Z,53.03
2023-01-19T01:54:09.450Z,44.88
2023-01-19T01:56:16.781Z,54.70
2023-01-19T01:58:18.736Z,38.03
2023-01-19T02:00:20.711Z,49.03
2023-01-19T04:16:31.757Z,62.17
2023-01-19T04:20:37.631Z,51.30
2023-01-19T04:22:39.740Z,47.60
2023-01-19T04:26:44.170Z,64.17
2023-01-19T04:28:46.130Z,49.65
2023-01-19T04:30:51.861Z,53.83
2023-01-19T04:32:55.508Z,65.18
2023-01-19T04:34:57.408Z,97.32
2023-01-19T04:36:59.251Z,79.70
2023-01-19T04:39:01.196Z,67.78
2023-01-19T04:41:03.277Z,70.53
2023-01-19T04:45:07.363Z,71.53
2023-01-19T04:47:09.594Z,61.50
2023-01-19T04:49:11.507Z,49.90
2023-01-19T04:51:14.388Z,69.07
2023-01-19T04:53:16.646Z,46.28
2023-01-19T04:55:18.534Z,47.83
2023-01-19T04:57:20.621Z,54.10
2023-01-19T05:01:24.822Z,46.93
2023-01-19T05:03:27.172Z,53.08
2023-01-19T05:05:29.547Z,58.53
2023-01-19T05:07:31.490Z,70.63
2023-01-19T05:09:33.461Z,67.20
2023-01-19T05:11:36.254Z,68.53
2023-01-19T05:13:38.126Z,68.15
2023-01-19T05:15:40.023Z,65.70
2023-01-19T05:17:42.409Z,66.07
2023-01-19T05:19:44.304Z,62.20
2023-01-19T05:21:46.160Z,73.60
2023-01-19T05:23:48.074Z,64.78
2023-01-19T05:25:49.950Z,55.17
2023-01-19T05:27:51.862Z,62.90
2023-01-19T05:29:53.828Z,56.15
2023-01-19T05:31:55.882Z,71.57
2023-01-19T05:35:59.737Z,61.45
2023-01-19T05:38:01.972Z,47.30
2023-01-19T05:40:04.310Z,52.33
2023-01-19T05:42:06.327Z,44.97
2023-01-19T05:44:09.696Z,50.10
2023-01-19T05:46:11.942Z,61.83
2023-01-19T05:48:13.874Z,50.88
2023-01-19T05:50:15.974Z,50.28
2023-01-19T05:54:20.775Z,44.08
2023-01-19T05:56:22.675Z,50.30
2023-01-19T05:58:24.658Z,45.00
2023-01-19T06:00:27.521Z,52.22
2023-01-19T08:13:37.822Z,24.60
2023-01-19T08:17:41.699Z,23.27
2023-01-19T08:19:45.054Z,28.15
2023-01-19T08:21:46.896Z,20.77
2023-01-19T08:23:55.878Z,29.50
2023-01-19T08:25:57.931Z,18.73
2023-01-19T08:28:00.472Z,26.08
2023-01-19T08:30:02.354Z,26.38
2023-01-19T08:32:04.881Z,23.42
2023-01-19T08:34:06.944Z,17.88
2023-01-19T08:36:08.858Z,21.05
2023-01-19T08:38:12.080Z,24.45
2023-01-19T08:40:14.113Z,24.45
2023-01-19T08:42:16.032Z,20.90
2023-01-19T08:44:18.157Z,23.67
2023-01-19T08:48:24.349Z,18.75
2023-01-19T08:50:27.677Z,18.48
2023-01-19T08:52:30.658Z,17.58
2023-01-19T08:54:32.518Z,22.75
2023-01-19T08:56:34.481Z,17.40
2023-01-19T08:58:36.353Z,23.80
2023-01-19T09:00:39.682Z,22.33
2023-01-19T09:02:41.695Z,22.17
2023-01-19T09:04:43.592Z,20.42
2023-01-19T09:06:45.450Z,20.35
2023-01-19T09:08:49.171Z,20.25
2023-01-19T09:10:51.888Z,25.80
2023-01-19T09:12:53.756Z,20.98
2023-01-19T09:14:55.731Z,18.27
2023-01-19T09:16:57.694Z,21.88
2023-01-19T09:18:59.592Z,16.88
2023-01-19T09:21:02.496Z,19.02
2023-01-19T09:23:04.793Z,25.52
2023-01-19T09:25:08.189Z,20.02
2023-01-19T09:27:10.100Z,18.38
2023-01-19T09:29:11.959Z,19.92
2023-01-19T09:31:15.224Z,20.75
2023-01-19T09:33:18.958Z,17.30
2023-01-19T09:35:21.660Z,15.65
2023-01-19T09:37:23.626Z,20.83
2023-01-19T09:39:26.512Z,19.60
2023-01-19T09:41:29.684Z,18.98
2023-01-19T09:43:34.351Z,16.83
2023-01-19T09:45:46.190Z,22.38
2023-01-19T09:47:49.615Z,20.10
2023-01-19T09:50:06.802Z,21.13
2023-01-19T09:52:13.599Z,20.88
2023-01-19T09:54:16.933Z,21.15
2023-01-19T09:56:22.524Z,19.95
2023-01-19T09:58:24.441Z,16.98
2023-01-19T10:00:29.201Z,18.95
2023-01-19T12:15:02.408Z,20.02
2023-01-19T12:17:07.729Z,12.82
2023-01-19T12:19:25.166Z,16.25
2023-01-19T12:21:27.075Z,14.07
2023-01-19T12:23:55.942Z,17.10
2023-01-19T12:25:58.165Z,22.52
2023-01-19T12:28:00.668Z,21.58
2023-01-19T12:30:03.197Z,23.55
2023-01-19T12:32:14.103Z,19.23
2023-01-19T12:34:40.434Z,17.65
2023-01-19T12:36:44.038Z,17.35
2023-01-19T12:38:46.916Z,15.70
2023-01-19T12:40:48.876Z,13.60
2023-01-19T12:42:59.402Z,20.67
2023-01-19T12:45:13.595Z,18.17
2023-01-19T12:47:15.504Z,19.73
2023-01-19T12:49:42.471Z,13.20
2023-01-19T12:51:44.550Z,10.73
2023-01-19T12:56:01.187Z,18.15
2023-01-19T12:58:20.668Z,21.98
2023-01-19T13:00:22.583Z,19.45
2023-01-19T13:02:24.529Z,18.80
2023-01-19T13:04:35.767Z,18.25
2023-01-19T13:07:12.162Z,20.95
2023-01-19T13:09:32.010Z,20.73
2023-01-19T13:11:36.570Z,19.85
2023-01-19T13:13:43.930Z,15.85
2023-01-19T13:15:45.881Z,17.38
2023-01-19T13:17:52.888Z,15.27
2023-01-19T13:20:17.579Z,18.67
2023-01-19T13:22:50.102Z,19.30
2023-01-19T13:25:24.261Z,18.90
2023-01-19T13:27:28.659Z,19.25
2023-01-19T13:29:37.294Z,22.73
2023-01-19T13:31:44.674Z,23.63
2023-01-19T13:33:55.702Z,17.30
2023-01-19T13:35:58.988Z,17.15
2023-01-19T13:38:01.415Z,19.25
2023-01-19T13:40:06.481Z,21.20
2023-01-19T13:42:22.783Z,19.05
2023-01-19T13:44:32.877Z,18.02
2023-01-19T13:46:38.545Z,18.00
2023-01-19T13:48:51.357Z,26.27
2023-01-19T13:50:58.832Z,13.68
2023-01-19T13:53:01.523Z,13.20
2023-01-19T13:55:05.445Z,19.23
2023-01-19T13:57:23.201Z,20.77
2023-01-19T13:59:25.265Z,18.42
2023-01-19T16:13:36.351Z,24.85
2023-01-19T16:15:40.823Z,28.08
2023-01-19T16:17:43.562Z,17.88
2023-01-19T16:19:45.735Z,13.75
2023-01-19T16:23:49.812Z,19.60
2023-01-19T16:27:58.433Z,28.10
2023-01-19T16:30:04.859Z,18.65
2023-01-19T16:32:07.311Z,28.88
2023-01-19T16:34:10.037Z,20.40
2023-01-19T16:36:26.954Z,19.88
2023-01-19T16:38:29.333Z,29.83
2023-01-19T16:40:34.189Z,20.67
2023-01-19T16:42:36.260Z,27.20
2023-01-19T16:46:42.357Z,27.80
2023-01-19T16:48:44.324Z,25.30
2023-01-19T16:51:06.788Z,25.98
2023-01-19T16:53:10.803Z,26.48
2023-01-19T16:55:12.787Z,25.73
2023-01-19T16:57:15.065Z,21.67
2023-01-19T16:59:18.112Z,21.13
2023-01-19T17:01:21.337Z,32.35
2023-01-19T17:03:27.389Z,24.65
2023-01-19T17:05:29.287Z,23.98
2023-01-19T17:07:31.270Z,25.08
2023-01-19T17:09:34.173Z,20.38
2023-01-19T17:11:36.767Z,23.60
2023-01-19T17:13:39.523Z,27.95
2023-01-19T17:15:41.700Z,19.38
2023-01-19T17:19:45.553Z,23.42
2023-01-19T17:23:55.399Z,25.00
2023-01-19T17:25:58.630Z,27.38
2023-01-19T17:28:01.584Z,22.45
2023-01-19T17:30:04.648Z,23.17
2023-01-19T17:32:06.701Z,28.23
2023-01-19T17:34:09.979Z,19.02
2023-01-19T17:36:14.947Z,17.48
2023-01-19T17:38:17.380Z,18.67
2023-01-19T17:40:19.457Z,22.25
2023-01-19T17:44:25.266Z,19.35
2023-01-19T17:46:28.853Z,24.08
2023-01-19T17:48:31.056Z,20.67
2023-01-19T17:50:34.741Z,20.55
2023-01-19T17:52:36.885Z,22.58
2023-01-19T17:56:41.392Z,27.45
2023-01-19T17:58:45.081Z,21.48
2023-01-19T18:00:47.006Z,21.88
2023-01-19T20:13:42.403Z,15.00
2023-01-19T20:15:44.559Z,23.38
2023-01-19T20:19:49.182Z,21.00
2023-01-19T20:21:51.122Z,18.25
2023-01-19T20:23:54.276Z,15.82
2023-01-19T20:25:56.228Z,18.77
2023-01-19T20:27:59.413Z,19.23
2023-01-19T20:30:01.646Z,20.42
2023-01-19T20:32:04.034Z,18.92
2023-01-19T20:34:09.023Z,23.23
2023-01-19T20:36:14.405Z,24.48
2023-01-19T20:38:16.471Z,23.42
2023-01-19T20:42:20.697Z,23.15
2023-01-19T20:44:25.292Z,16.25
2023-01-19T20:46:27.337Z,18.90
2023-01-19T20:50:31.120Z,20.65
2023-01-19T20:52:35.985Z,21.30
2023-01-19T20:54:39.833Z,20.10
2023-01-19T20:56:42.018Z,17.80
2023-01-19T20:58:44.102Z,23.23
2023-01-19T21:02:48.203Z,20.45
2023-01-19T21:06:52.946Z,19.10
2023-01-19T21:08:54.949Z,19.77
2023-01-19T21:10:58.202Z,19.13
2023-01-19T21:13:00.110Z,24.67
2023-01-19T21:15:02.231Z,16.42
2023-01-19T21:19:06.737Z,25.70
2023-01-19T21:21:14.955Z,24.10
2023-01-19T21:23:23.798Z,23.35
2023-01-19T21:25:26.002Z,16.77
2023-01-19T21:27:27.920Z,20.58
2023-01-19T21:29:29.950Z,15.20
2023-01-19T21:31:32.120Z,19.10
2023-01-19T21:33:34.705Z,16.10
2023-01-19T21:35:37.487Z,23.27
2023-01-19T21:37:39.741Z,22.08
2023-01-19T21:39:41.865Z,21.85
2023-01-19T21:43:47.081Z,18.83
2023-01-19T21:47:51.272Z,18.80
2023-01-19T21:51:55.453Z,14.35
2023-01-19T21:53:59.824Z,24.30
2023-01-19T21:56:02.117Z,16.83
2023-01-19T21:58:04.889Z,17.40
2023-01-19T22:00:08.451Z,21.40
